Terminal Aerodrome Forecast
Issued by NWS

Home | Current Version | Previous Version | Text Only | Print | Product List | Glossary On
Versions: 1 2 3 4 5 6 7 8 9 10 11 12 13 14 15
000
FTUS44 KTSA 310520
TAFMLC
TAF
KMLC 310520Z 3106/0106 11003KT P6SM SCT050 SCT250
     FM311000 13002KT P6SM BKN025
     FM311400 15005KT P6SM BKN035
     FM311800 19008KT P6SM BKN045 PROB30 3118/3124 5SM -TSRA
      BKN030CB
     FM010000 15005KT P6SM VCTS BKN080CB=

USA.gov is the U.S. government's official web portal to all federal, state and local government web resources and services.